sensor_id;sensor_type;location;lat;lon;timestamp;pressure;altitude;pressure_sealevel;temperature;humidity
74346;BME280;62776;50.518;6.732;2023-08-17T00:00:41;96828.88;;;19.23;100.00
74346;BME280;62776;50.518;6.732;2023-08-17T00:03:27;96832.38;;;19.23;100.00
74346;BME280;62776;50.518;6.732;2023-08-17T00:06:14;96837.63;;;19.23;100.00
74346;BME280;62776;50.518;6.732;2023-08-17T00:09:00;96844.75;;;19.21;100.00
74346;BME280;62776;50.518;6.732;2023-08-17T00:11:50;96845.63;;;19.22;100.00
74346;BME280;62776;50.518;6.732;2023-08-17T00:14:36;96845.63;;;19.22;100.00
74346;BME280;62776;50.518;6.732;2023-08-17T00:17:22;96844.81;;;19.20;100.00
74346;BME280;62776;50.518;6.732;2023-08-17T00:20:09;96848.28;;;19.20;100.00
74346;BME280;62776;50.518;6.732;2023-08-17T00:22:55;96843.78;;;19.24;100.00
74346;BME280;62776;50.518;6.732;2023-08-17T00:25:42;96842.78;;;19.26;100.00
74346;BME280;62776;50.518;6.732;2023-08-17T00:28:28;96841.69;;;19.32;100.00
74346;BME280;62776;50.518;6.732;2023-08-17T00:31:14;96845.06;;;19.35;100.00
74346;BME280;62776;50.518;6.732;2023-08-17T00:34:00;96841.41;;;19.39;100.00
74346;BME280;62776;50.518;6.732;2023-08-17T00:36:46;96839.50;;;19.43;100.00
74346;BME280;62776;50.518;6.732;2023-08-17T00:39:34;96848.50;;;19.37;100.00
74346;BME280;62776;50.518;6.732;2023-08-17T00:42:20;96846.91;;;19.33;100.00
74346;BME280;62776;50.518;6.732;2023-08-17T00:45:06;96847.91;;;19.31;100.00
74346;BME280;62776;50.518;6.732;2023-08-17T00:47:56;96849.91;;;19.24;100.00
74346;BME280;62776;50.518;6.732;2023-08-17T00:50:44;96854.13;;;19.28;100.00
74346;BME280;62776;50.518;6.732;2023-08-17T00:53:32;96850.66;;;19.28;100.00
74346;BME280;62776;50.518;6.732;2023-08-17T00:56:19;96843.03;;;19.20;100.00
74346;BME280;62776;50.518;6.732;2023-08-17T00:59:05;96843.28;;;19.14;100.00
74346;BME280;62776;50.518;6.732;2023-08-17T01:01:52;96838.03;;;19.14;100.00
74346;BME280;62776;50.518;6.732;2023-08-17T01:04:38;96840.50;;;19.17;100.00
74346;BME280;62776;50.518;6.732;2023-08-17T01:07:24;96832.88;;;19.11;100.00
74346;BME280;62776;50.518;6.732;2023-08-17T01:10:12;96847.75;;;19.12;100.00
74346;BME280;62776;50.518;6.732;2023-08-17T01:13:27;96832.34;;;19.02;100.00
74346;BME280;62776;50.518;6.732;2023-08-17T01:16:28;96827.94;;;19.02;100.00
74346;BME280;62776;50.518;6.732;2023-08-17T01:19:26;96827.03;;;19.03;100.00
74346;BME280;62776;50.518;6.732;2023-08-17T01:22:17;96828.69;;;19.06;100.00
74346;BME280;62776;50.518;6.732;2023-08-17T01:25:05;96833.66;;;19.13;100.00
74346;BME280;62776;50.518;6.732;2023-08-17T01:27:51;96822.31;;;19.11;100.00
74346;BME280;62776;50.518;6.732;2023-08-17T01:34:05;96818.28;;;19.03;100.00
74346;BME280;62776;50.518;6.732;2023-08-17T01:36:58;96814.88;;;18.99;100.00
74346;BME280;62776;50.518;6.732;2023-08-17T01:39:51;96821.22;;;18.95;100.00
74346;BME280;62776;50.518;6.732;2023-08-17T01:42:40;96825.63;;;18.95;100.00
74346;BME280;62776;50.518;6.732;2023-08-17T01:45:27;96826.47;;;18.95;100.00
74346;BME280;62776;50.518;6.732;2023-08-17T01:48:14;96827.50;;;18.91;100.00
74346;BME280;62776;50.518;6.732;2023-08-17T01:51:00;96822.31;;;18.90;100.00
74346;BME280;62776;50.518;6.732;2023-08-17T01:53:47;96825.88;;;18.87;100.00
74346;BME280;62776;50.518;6.732;2023-08-17T01:56:33;96824.00;;;18.91;100.00
74346;BME280;62776;50.518;6.732;2023-08-17T01:59:28;96821.78;;;18.80;100.00
74346;BME280;62776;50.518;6.732;2023-08-17T02:02:14;96825.00;;;18.88;100.00
74346;BME280;62776;50.518;6.732;2023-08-17T02:05:00;96826.53;;;18.94;100.00
74346;BME280;62776;50.518;6.732;2023-08-17T02:07:46;96821.25;;;18.94;100.00
74346;BME280;62776;50.518;6.732;2023-08-17T02:10:32;96828.06;;;18.99;100.00
74346;BME280;62776;50.518;6.732;2023-08-17T02:13:19;96828.97;;;18.98;100.00
74346;BME280;62776;50.518;6.732;2023-08-17T02:16:05;96827.28;;;18.97;100.00
74346;BME280;62776;50.518;6.732;2023-08-17T02:18:51;96828.19;;;18.96;100.00
74346;BME280;62776;50.518;6.732;2023-08-17T02:21:37;96822.03;;;18.96;100.00
74346;BME280;62776;50.518;6.732;2023-08-17T02:24:24;96820.28;;;18.96;100.00
74346;BME280;62776;50.518;6.732;2023-08-17T02:27:11;96817.03;;;18.90;100.00
74346;BME280;62776;50.518;6.732;2023-08-17T02:29:57;96814.34;;;18.91;100.00
74346;BME280;62776;50.518;6.732;2023-08-17T02:32:43;96809.97;;;18.90;100.00
74346;BME280;62776;50.518;6.732;2023-08-17T02:35:31;96809.06;;;18.91;100.00
74346;BME280;62776;50.518;6.732;2023-08-17T02:38:18;96809.06;;;18.91;100.00
74346;BME280;62776;50.518;6.732;2023-08-17T02:41:04;96804.31;;;19.01;100.00
74346;BME280;62776;50.518;6.732;2023-08-17T02:43:52;96803.44;;;19.00;100.00
74346;BME280;62776;50.518;6.732;2023-08-17T02:46:38;96799.88;;;19.01;100.00
74346;BME280;62776;50.518;6.732;2023-08-17T02:49:24;96799.03;;;19.01;100.00
74346;BME280;62776;50.518;6.732;2023-08-17T02:52:10;96795.53;;;19.00;100.00
74346;BME280;62776;50.518;6.732;2023-08-17T02:54:56;96795.81;;;18.93;100.00
74346;BME280;62776;50.518;6.732;2023-08-17T02:57:43;96798.59;;;18.90;100.00
74346;BME280;62776;50.518;6.732;2023-08-17T03:00:29;96798.44;;;18.93;100.00
74346;BME280;62776;50.518;6.732;2023-08-17T03:03:15;96803.00;;;18.89;100.00
74346;BME280;62776;50.518;6.732;2023-08-17T03:06:03;96791.91;;;18.81;100.00
74346;BME280;62776;50.518;6.732;2023-08-17T03:08:50;96798.09;;;18.80;100.00
74346;BME280;62776;50.518;6.732;2023-08-17T03:11:38;96796.44;;;18.77;100.00
74346;BME280;62776;50.518;6.732;2023-08-17T03:14:26;96791.94;;;18.79;100.00
74346;BME280;62776;50.518;6.732;2023-08-17T03:17:12;96794.53;;;18.81;100.00
74346;BME280;62776;50.518;6.732;2023-08-17T03:19:59;96790.81;;;18.87;100.00
74346;BME280;62776;50.518;6.732;2023-08-17T03:22:48;96795.22;;;18.86;100.00
74346;BME280;62776;50.518;6.732;2023-08-17T03:25:34;96788.22;;;18.85;100.00
74346;BME280;62776;50.518;6.732;2023-08-17T03:28:20;96784.56;;;18.89;100.00
74346;BME280;62776;50.518;6.732;2023-08-17T03:31:08;96782.84;;;18.88;100.00
74346;BME280;62776;50.518;6.732;2023-08-17T03:33:56;96784.69;;;18.86;100.00
74346;BME280;62776;50.518;6.732;2023-08-17T03:36:42;96782.72;;;18.91;100.00
74346;BME280;62776;50.518;6.732;2023-08-17T03:39:29;96785.13;;;18.97;100.00
74346;BME280;62776;50.518;6.732;2023-08-17T03:42:16;96785.91;;;18.99;100.00
74346;BME280;62776;50.518;6.732;2023-08-17T03:45:04;96786.03;;;18.96;100.00
74346;BME280;62776;50.518;6.732;2023-08-17T03:47:51;96791.28;;;18.96;100.00
74346;BME280;62776;50.518;6.732;2023-08-17T03:50:37;96777.47;;;18.91;100.00
74346;BME280;62776;50.518;6.732;2023-08-17T03:53:25;96781.00;;;18.90;100.00
74346;BME280;62776;50.518;6.732;2023-08-17T03:56:11;96778.34;;;18.90;100.00
74346;BME280;62776;50.518;6.732;2023-08-17T03:58:58;96781.84;;;18.91;100.00
74346;BME280;62776;50.518;6.732;2023-08-17T04:01:44;96793.38;;;18.88;100.00
74346;BME280;62776;50.518;6.732;2023-08-17T04:04:30;96796.00;;;18.88;100.00
74346;BME280;62776;50.518;6.732;2023-08-17T04:07:23;96793.81;;;18.77;100.00
74346;BME280;62776;50.518;6.732;2023-08-17T04:10:10;96799.69;;;18.84;100.00
74346;BME280;62776;50.518;6.732;2023-08-17T04:12:57;96801.41;;;18.85;100.00
74346;BME280;62776;50.518;6.732;2023-08-17T04:15:43;96804.09;;;18.83;100.00
74346;BME280;62776;50.518;6.732;2023-08-17T04:18:29;96803.34;;;18.80;100.00
74346;BME280;62776;50.518;6.732;2023-08-17T04:21:15;96816.28;;;18.86;100.00
74346;BME280;62776;50.518;6.732;2023-08-17T04:24:01;96814.41;;;18.90;100.00
74346;BME280;62776;50.518;6.732;2023-08-17T04:26:49;96813.44;;;18.92;100.00
74346;BME280;62776;50.518;6.732;2023-08-17T04:29:35;96811.59;;;18.94;100.00
74346;BME280;62776;50.518;6.732;2023-08-17T04:32:22;96808.94;;;18.94;100.00
74346;BME280;62776;50.518;6.732;2023-08-17T04:35:08;96815.13;;;18.93;100.00
74346;BME280;62776;50.518;6.732;2023-08-17T04:37:56;96810.94;;;18.88;100.00
74346;BME280;62776;50.518;6.732;2023-08-17T04:40:43;96823.22;;;18.89;100.00
74346;BME280;62776;50.518;6.732;2023-08-17T04:43:29;96811.25;;;18.80;100.00
74346;BME280;62776;50.518;6.732;2023-08-17T04:46:17;96815.66;;;18.79;100.00
74346;BME280;62776;50.518;6.732;2023-08-17T04:49:03;96820.38;;;18.71;100.00
74346;BME280;62776;50.518;6.732;2023-08-17T04:51:49;96808.94;;;18.72;100.00
74346;BME280;62776;50.518;6.732;2023-08-17T04:54:35;96812.16;;;18.79;100.00
74346;BME280;62776;50.518;6.732;2023-08-17T04:57:22;96818.13;;;18.84;100.00
74346;BME280;62776;50.518;6.732;2023-08-17T05:00:09;96820.63;;;18.87;100.00
74346;BME280;62776;50.518;6.732;2023-08-17T05:02:56;96827.81;;;18.83;100.00
74346;BME280;62776;50.518;6.732;2023-08-17T05:05:42;96824.44;;;18.80;100.00
74346;BME280;62776;50.518;6.732;2023-08-17T05:08:28;96822.78;;;18.77;100.00
74346;BME280;62776;50.518;6.732;2023-08-17T05:11:14;96820.78;;;18.84;100.00
74346;BME280;62776;50.518;6.732;2023-08-17T05:14:00;96822.31;;;18.90;100.00
74346;BME280;62776;50.518;6.732;2023-08-17T05:16:47;96822.44;;;18.87;100.00
74346;BME280;62776;50.518;6.732;2023-08-17T05:19:33;96820.63;;;18.87;100.00
74346;BME280;62776;50.518;6.732;2023-08-17T05:22:19;96815.31;;;18.89;100.00
74346;BME280;62776;50.518;6.732;2023-08-17T05:25:05;96819.78;;;18.87;100.00
74346;BME280;62776;50.518;6.732;2023-08-17T05:27:52;96821.38;;;18.91;100.00
74346;BME280;62776;50.518;6.732;2023-08-17T05:30:38;96830.38;;;18.85;100.00
74346;BME280;62776;50.518;6.732;2023-08-17T05:33:24;96828.59;;;18.85;100.00
74346;BME280;62776;50.518;6.732;2023-08-17T05:36:10;96832.22;;;18.83;100.00
74346;BME280;62776;50.518;6.732;2023-08-17T05:38:57;96828.72;;;18.82;100.00
74346;BME280;62776;50.518;6.732;2023-08-17T05:41:43;96832.22;;;18.83;100.00
74346;BME280;62776;50.518;6.732;2023-08-17T05:44:30;96832.88;;;18.88;100.00
74346;BME280;62776;50.518;6.732;2023-08-17T05:47:16;96823.97;;;18.92;100.00
74346;BME280;62776;50.518;6.732;2023-08-17T05:50:05;96819.41;;;18.96;100.00
74346;BME280;62776;50.518;6.732;2023-08-17T05:52:53;96821.94;;;18.99;100.00
74346;BME280;62776;50.518;6.732;2023-08-17T05:55:40;96828.03;;;19.01;100.00
74346;BME280;62776;50.518;6.732;2023-08-17T05:58:26;96831.38;;;19.04;100.00
74346;BME280;62776;50.518;6.732;2023-08-17T06:01:13;96825.94;;;19.09;100.00
74346;BME280;62776;50.518;6.732;2023-08-17T06:03:59;96837.28;;;19.11;100.00
74346;BME280;62776;50.518;6.732;2023-08-17T06:06:46;96830.34;;;19.08;100.00
74346;BME280;62776;50.518;6.732;2023-08-17T06:09:32;96839.16;;;19.07;100.00
74346;BME280;62776;50.518;6.732;2023-08-17T06:12:19;96847.06;;;19.07;100.00
74346;BME280;62776;50.518;6.732;2023-08-17T06:15:05;96839.47;;;19.00;100.00
74346;BME280;62776;50.518;6.732;2023-08-17T06:17:52;96838.59;;;18.99;100.00
74346;BME280;62776;50.518;6.732;2023-08-17T06:20:41;96843.19;;;18.94;100.00
74346;BME280;62776;50.518;6.732;2023-08-17T06:23:28;96839.94;;;18.88;100.00
74346;BME280;62776;50.518;6.732;2023-08-17T06:26:32;96837.94;;;18.71;100.00
74346;BME280;62776;50.518;6.732;2023-08-17T06:29:22;96842.81;;;18.81;100.00
74346;BME280;62776;50.518;6.732;2023-08-17T06:32:09;96840.91;;;18.85;100.00
74346;BME280;62776;50.518;6.732;2023-08-17T06:34:55;96839.13;;;18.85;100.00
74346;BME280;62776;50.518;6.732;2023-08-17T06:37:41;96840.34;;;18.77;100.00
74346;BME280;62776;50.518;6.732;2023-08-17T06:40:27;96841.88;;;18.82;100.00
74346;BME280;62776;50.518;6.732;2023-08-17T06:43:14;96843.09;;;18.74;100.00
74346;BME280;62776;50.518;6.732;2023-08-17T06:46:00;96852.72;;;18.75;100.00
74346;BME280;62776;50.518;6.732;2023-08-17T06:48:47;96850.94;;;18.75;100.00
74346;BME280;62776;50.518;6.732;2023-08-17T06:51:36;96852.94;;;18.69;100.00
74346;BME280;62776;50.518;6.732;2023-08-17T06:54:22;96849.34;;;18.71;100.00
74346;BME280;62776;50.518;6.732;2023-08-17T06:57:08;96857.13;;;18.74;100.00
74346;BME280;62776;50.518;6.732;2023-08-17T06:59:54;96852.66;;;18.76;100.00
74346;BME280;62776;50.518;6.732;2023-08-17T07:02:52;96858.22;;;18.69;100.00
74346;BME280;62776;50.518;6.732;2023-08-17T07:05:38;96860.72;;;18.72;100.00
74346;BME280;62776;50.518;6.732;2023-08-17T07:08:24;96858.44;;;18.63;100.00
74346;BME280;62776;50.518;6.732;2023-08-17T07:11:11;96865.34;;;18.65;100.00
74346;BME280;62776;50.518;6.732;2023-08-17T07:13:57;96872.47;;;18.63;100.00
74346;BME280;62776;50.518;6.732;2023-08-17T07:16:43;96872.53;;;18.62;100.00
74346;BME280;62776;50.518;6.732;2023-08-17T07:19:30;96858.38;;;18.64;100.00
74346;BME280;62776;50.518;6.732;2023-08-17T07:22:21;96866.19;;;18.67;100.00
74346;BME280;62776;50.518;6.732;2023-08-17T07:25:07;96862.28;;;18.77;100.00
74346;BME280;62776;50.518;6.732;2023-08-17T07:27:54;96864.63;;;18.85;100.00
74346;BME280;62776;50.518;6.732;2023-08-17T07:30:59;96873.59;;;18.79;100.00
74346;BME280;62776;50.518;6.732;2023-08-17T07:33:46;96876.41;;;18.98;100.00
74346;BME280;62776;50.518;6.732;2023-08-17T07:36:32;96875.84;;;18.90;100.00
74346;BME280;62776;50.518;6.732;2023-08-17T07:39:31;96871.09;;;18.76;100.00
74346;BME280;62776;50.518;6.732;2023-08-17T07:42:18;96868.34;;;18.79;100.00
74346;BME280;62776;50.518;6.732;2023-08-17T07:45:04;96874.59;;;18.77;100.00
74346;BME280;62776;50.518;6.732;2023-08-17T07:47:58;96871.38;;;18.69;100.00
74346;BME280;62776;50.518;6.732;2023-08-17T07:50:49;96873.38;;;18.62;100.00
74346;BME280;62776;50.518;6.732;2023-08-17T07:53:37;96874.91;;;18.68;100.00
74346;BME280;62776;50.518;6.732;2023-08-17T07:56:26;96875.06;;;18.65;100.00
74346;BME280;62776;50.518;6.732;2023-08-17T07:59:13;96875.78;;;18.68;100.00
74346;BME280;62776;50.518;6.732;2023-08-17T08:01:59;96877.19;;;18.78;100.00
74346;BME280;62776;50.518;6.732;2023-08-17T08:04:47;96881.34;;;18.84;100.00
74346;BME280;62776;50.518;6.732;2023-08-17T08:07:33;96881.22;;;18.87;100.00
74346;BME280;62776;50.518;6.732;2023-08-17T08:10:20;96876.00;;;18.85;100.00
74346;BME280;62776;50.518;6.732;2023-08-17T08:13:08;96879.56;;;18.84;100.00
74346;BME280;62776;50.518;6.732;2023-08-17T08:15:55;96879.19;;;18.95;100.00
74346;BME280;62776;50.518;6.732;2023-08-17T08:18:41;96879.31;;;19.14;100.00
74346;BME280;62776;50.518;6.732;2023-08-17T08:21:27;96872.44;;;19.31;100.00
74346;BME280;62776;50.518;6.732;2023-08-17T08:24:14;96874.75;;;19.40;100.00
74346;BME280;62776;50.518;6.732;2023-08-17T08:27:01;96879.69;;;19.50;100.00
74346;BME280;62776;50.518;6.732;2023-08-17T08:29:47;96876.66;;;19.59;100.00
74346;BME280;62776;50.518;6.732;2023-08-17T08:32:33;96871.00;;;19.68;100.00
74346;BME280;62776;50.518;6.732;2023-08-17T08:35:19;96866.41;;;19.73;100.00
74346;BME280;62776;50.518;6.732;2023-08-17T08:38:08;96869.41;;;19.85;100.00
74346;BME280;62776;50.518;6.732;2023-08-17T08:40:56;96857.72;;;19.91;100.00
74346;BME280;62776;50.518;6.732;2023-08-17T08:43:42;96855.41;;;20.03;100.00
74346;BME280;62776;50.518;6.732;2023-08-17T08:46:30;96853.09;;;20.16;100.00
74346;BME280;62776;50.518;6.732;2023-08-17T08:49:20;96848.50;;;20.21;100.00
74346;BME280;62776;50.518;6.732;2023-08-17T08:52:15;96842.66;;;20.35;100.00
74346;BME280;62776;50.518;6.732;2023-08-17T08:55:12;96836.25;;;20.40;100.00
74346;BME280;62776;50.518;6.732;2023-08-17T08:58:01;96834.69;;;20.55;100.00
74346;BME280;62776;50.518;6.732;2023-08-17T09:00:30;96842.97;;;20.66;100.00
74346;BME280;62776;50.518;6.732;2023-08-17T09:03:17;96842.06;;;20.67;100.00
74346;BME280;62776;50.518;6.732;2023-08-17T09:06:06;96845.69;;;20.65;100.00
74346;BME280;62776;50.518;6.732;2023-08-17T09:08:53;96838.00;;;20.79;100.00
74346;BME280;62776;50.518;6.732;2023-08-17T09:11:40;96829.44;;;20.74;100.00
74346;BME280;62776;50.518;6.732;2023-08-17T09:14:26;96843.50;;;20.93;100.00
74346;BME280;62776;50.518;6.732;2023-08-17T09:17:12;96837.78;;;21.02;100.00
74346;BME280;62776;50.518;6.732;2023-08-17T09:19:59;96834.47;;;21.17;100.00
74346;BME280;62776;50.518;6.732;2023-08-17T09:22:46;96831.28;;;21.28;100.00
74346;BME280;62776;50.518;6.732;2023-08-17T09:25:32;96836.00;;;21.40;100.00
74346;BME280;62776;50.518;6.732;2023-08-17T09:28:20;96828.06;;;21.57;100.00
74346;BME280;62776;50.518;6.732;2023-08-17T09:31:06;96837.06;;;21.71;100.00
74346;BME280;62776;50.518;6.732;2023-08-17T09:33:53;96828.50;;;21.66;100.00
74346;BME280;62776;50.518;6.732;2023-08-17T09:36:40;96823.50;;;21.60;100.00
74346;BME280;62776;50.518;6.732;2023-08-17T09:39:26;96823.22;;;21.84;100.00
74346;BME280;62776;50.518;6.732;2023-08-17T09:42:12;96823.22;;;21.84;100.00
74346;BME280;62776;50.518;6.732;2023-08-17T09:44:58;96822.56;;;21.78;100.00
74346;BME280;62776;50.518;6.732;2023-08-17T09:47:47;96814.41;;;21.83;100.00
74346;BME280;62776;50.518;6.732;2023-08-17T09:50:33;96813.28;;;21.89;100.00
74346;BME280;62776;50.518;6.732;2023-08-17T09:53:19;96807.69;;;21.95;100.00
74346;BME280;62776;50.518;6.732;2023-08-17T09:56:06;96809.84;;;22.04;100.00
74346;BME280;62776;50.518;6.732;2023-08-17T09:58:56;96816.41;;;22.14;100.00
74346;BME280;62776;50.518;6.732;2023-08-17T10:01:43;96808.81;;;22.23;100.00
74346;BME280;62776;50.518;6.732;2023-08-17T10:04:32;96807.59;;;22.13;100.00
74346;BME280;62776;50.518;6.732;2023-08-17T10:07:24;96809.38;;;21.96;100.00
74346;BME280;62776;50.518;6.732;2023-08-17T10:10:10;96811.06;;;21.80;100.00
74346;BME280;62776;50.518;6.732;2023-08-17T10:13:07;96806.69;;;21.78;100.00
74346;BME280;62776;50.518;6.732;2023-08-17T10:19:37;96812.31;;;21.72;100.00
74346;BME280;62776;50.518;6.732;2023-08-17T10:25:16;96821.56;;;21.81;100.00
74346;BME280;62776;50.518;6.732;2023-08-17T10:28:03;96822.06;;;22.06;100.00
74346;BME280;62776;50.518;6.732;2023-08-17T10:30:49;96820.72;;;22.15;100.00
74346;BME280;62776;50.518;6.732;2023-08-17T10:33:36;96821.28;;;22.39;100.00
74346;BME280;62776;50.518;6.732;2023-08-17T10:36:24;96824.59;;;22.42;100.00
74346;BME280;62776;50.518;6.732;2023-08-17T10:39:30;96821.88;;;22.44;100.00
74346;BME280;62776;50.518;6.732;2023-08-17T10:42:33;96828.41;;;22.37;100.00
74346;BME280;62776;50.518;6.732;2023-08-17T10:45:30;96827.41;;;22.39;100.00
74346;BME280;62776;50.518;6.732;2023-08-17T10:51:04;96822.97;;;22.40;100.00
74346;BME280;62776;50.518;6.732;2023-08-17T10:53:53;96827.09;;;22.45;100.00
74346;BME280;62776;50.518;6.732;2023-08-17T10:56:40;96833.25;;;22.28;100.00
74346;BME280;62776;50.518;6.732;2023-08-17T10:59:27;96838.72;;;22.25;100.00
74346;BME280;62776;50.518;6.732;2023-08-17T11:02:13;96847.63;;;22.24;100.00
74346;BME280;62776;50.518;6.732;2023-08-17T11:05:00;96837.69;;;22.28;100.00
74346;BME280;62776;50.518;6.732;2023-08-17T11:07:46;96838.25;;;22.34;100.00
74346;BME280;62776;50.518;6.732;2023-08-17T11:10:33;96836.59;;;22.49;100.00
74346;BME280;62776;50.518;6.732;2023-08-17T11:13:20;96836.34;;;22.54;100.00
74346;BME280;62776;50.518;6.732;2023-08-17T11:16:08;96838.88;;;22.72;100.00
74346;BME280;62776;50.518;6.732;2023-08-17T11:18:54;96834.34;;;22.74;100.00
74346;BME280;62776;50.518;6.732;2023-08-17T11:21:43;96836.03;;;22.92;100.00
74346;BME280;62776;50.518;6.732;2023-08-17T11:24:31;96839.97;;;23.17;100.00
74346;BME280;62776;50.518;6.732;2023-08-17T11:27:17;96834.28;;;23.40;100.00
74346;BME280;62776;50.518;6.732;2023-08-17T11:30:04;96832.09;;;23.31;100.00
74346;BME280;62776;50.518;6.732;2023-08-17T11:32:52;96833.72;;;23.33;100.00
74346;BME280;62776;50.518;6.732;2023-08-17T11:35:38;96831.75;;;23.37;100.00
74346;BME280;62776;50.518;6.732;2023-08-17T11:38:35;96836.06;;;23.24;100.00
74346;BME280;62776;50.518;6.732;2023-08-17T11:41:23;96842.97;;;23.11;100.00
74346;BME280;62776;50.518;6.732;2023-08-17T11:44:11;96845.78;;;23.08;100.00
74346;BME280;62776;50.518;6.732;2023-08-17T11:46:57;96843.75;;;23.28;100.00
74346;BME280;62776;50.518;6.732;2023-08-17T11:49:47;96844.25;;;23.35;100.00
74346;BME280;62776;50.518;6.732;2023-08-17T11:52:33;96843.41;;;23.34;100.00
74346;BME280;62776;50.518;6.732;2023-08-17T11:55:19;96849.06;;;23.44;100.00
74346;BME280;62776;50.518;6.732;2023-08-17T11:58:06;96848.38;;;23.56;100.00
74346;BME280;62776;50.518;6.732;2023-08-17T12:00:53;96843.44;;;23.50;100.00
74346;BME280;62776;50.518;6.732;2023-08-17T12:03:40;96847.38;;;23.43;100.00
74346;BME280;62776;50.518;6.732;2023-08-17T12:06:29;96851.81;;;23.58;100.00
74346;BME280;62776;50.518;6.732;2023-08-17T12:09:17;96855.84;;;23.49;100.00
74346;BME280;62776;50.518;6.732;2023-08-17T12:12:04;96849.66;;;23.49;100.00
74346;BME280;62776;50.518;6.732;2023-08-17T12:14:50;96854.38;;;23.44;100.00
74346;BME280;62776;50.518;6.732;2023-08-17T12:17:47;96845.16;;;23.51;100.00
74346;BME280;62776;50.518;6.732;2023-08-17T12:20:34;96838.47;;;23.89;100.00
74346;BME280;62776;50.518;6.732;2023-08-17T12:23:22;96832.88;;;24.10;100.00
74346;BME280;62776;50.518;6.732;2023-08-17T12:26:08;96831.00;;;24.12;100.00
74346;BME280;62776;50.518;6.732;2023-08-17T12:28:54;96837.47;;;24.22;100.00
74346;BME280;62776;50.518;6.732;2023-08-17T12:31:41;96830.81;;;24.29;100.00
74346;BME280;62776;50.518;6.732;2023-08-17T12:34:28;96828.47;;;24.08;100.00
74346;BME280;62776;50.518;6.732;2023-08-17T12:37:19;96827.38;;;24.13;100.00
74346;BME280;62776;50.518;6.732;2023-08-17T12:40:09;96821.91;;;24.30;100.00
74346;BME280;62776;50.518;6.732;2023-08-17T12:42:57;96817.84;;;24.38;100.00
74346;BME280;62776;50.518;6.732;2023-08-17T12:45:43;96816.38;;;24.19;100.00
74346;BME280;62776;50.518;6.732;2023-08-17T12:48:29;96813.72;;;23.89;100.00
74346;BME280;62776;50.518;6.732;2023-08-17T12:51:15;96812.97;;;23.87;100.00
74346;BME280;62776;50.518;6.732;2023-08-17T12:54:01;96809.09;;;24.06;100.00
74346;BME280;62776;50.518;6.732;2023-08-17T12:56:49;96801.78;;;24.26;100.00
74346;BME280;62776;50.518;6.732;2023-08-17T12:59:37;96813.59;;;24.50;100.00
74346;BME280;62776;50.518;6.732;2023-08-17T13:02:24;96819.09;;;24.47;100.00
74346;BME280;62776;50.518;6.732;2023-08-17T13:05:10;96808.81;;;24.27;100.00
74346;BME280;62776;50.518;6.732;2023-08-17T13:07:56;96814.59;;;24.03;100.00
74346;BME280;62776;50.518;6.732;2023-08-17T13:10:42;96814.41;;;23.92;100.00
74346;BME280;62776;50.518;6.732;2023-08-17T13:13:28;96814.34;;;24.08;100.00
74346;BME280;62776;50.518;6.732;2023-08-17T13:16:14;96809.47;;;24.16;100.00
74346;BME280;62776;50.518;6.732;2023-08-17T13:19:00;96799.13;;;24.26;100.00
74346;BME280;62776;50.518;6.732;2023-08-17T13:21:46;96808.53;;;24.45;100.00
74346;BME280;62776;50.518;6.732;2023-08-17T13:24:33;96796.13;;;24.60;100.00
74346;BME280;62776;50.518;6.732;2023-08-17T13:27:19;96795.56;;;24.55;100.00
74346;BME280;62776;50.518;6.732;2023-08-17T13:30:07;96800.50;;;24.47;100.00
74346;BME280;62776;50.518;6.732;2023-08-17T13:32:54;96798.41;;;24.52;100.00
74346;BME280;62776;50.518;6.732;2023-08-17T13:35:41;96793.16;;;24.50;100.00
74346;BME280;62776;50.518;6.732;2023-08-17T13:38:27;96787.75;;;24.52;100.00
74346;BME280;62776;50.518;6.732;2023-08-17T13:41:13;96773.72;;;24.50;100.00
74346;BME280;62776;50.518;6.732;2023-08-17T13:43:59;96778.28;;;24.90;100.00
74346;BME280;62776;50.518;6.732;2023-08-17T13:46:46;96778.16;;;25.33;100.00
74346;BME280;62776;50.518;6.732;2023-08-17T13:49:33;96765.56;;;25.75;100.00
74346;BME280;62776;50.518;6.732;2023-08-17T13:52:19;96775.63;;;25.58;100.00
74346;BME280;62776;50.518;6.732;2023-08-17T13:55:05;96769.38;;;25.45;100.00
74346;BME280;62776;50.518;6.732;2023-08-17T13:57:52;96763.69;;;25.10;100.00
74346;BME280;62776;50.518;6.732;2023-08-17T14:00:38;96762.41;;;24.89;100.00
74346;BME280;62776;50.518;6.732;2023-08-17T14:03:26;96762.91;;;24.53;100.00
74346;BME280;62776;50.518;6.732;2023-08-17T14:06:12;96770.09;;;24.51;100.00
74346;BME280;62776;50.518;6.732;2023-08-17T14:08:58;96770.78;;;24.54;100.00
74346;BME280;62776;50.518;6.732;2023-08-17T14:11:44;96765.81;;;24.77;100.00
74346;BME280;62776;50.518;6.732;2023-08-17T14:14:31;96766.16;;;25.54;100.00
74346;BME280;62776;50.518;6.732;2023-08-17T14:17:17;96760.44;;;26.37;100.00
74346;BME280;62776;50.518;6.732;2023-08-17T14:20:03;96750.88;;;27.32;100.00
74346;BME280;62776;50.518;6.732;2023-08-17T14:22:50;96759.28;;;27.15;100.00
74346;BME280;62776;50.518;6.732;2023-08-17T14:25:36;96748.03;;;26.74;100.00
74346;BME280;62776;50.518;6.732;2023-08-17T14:28:22;96745.41;;;26.23;100.00
74346;BME280;62776;50.518;6.732;2023-08-17T14:31:10;96744.59;;;25.84;100.00
74346;BME280;62776;50.518;6.732;2023-08-17T14:34:01;96736.94;;;25.79;100.00
74346;BME280;62776;50.518;6.732;2023-08-17T14:36:47;96745.22;;;25.74;100.00
74346;BME280;62776;50.518;6.732;2023-08-17T14:39:33;96734.25;;;25.79;100.00
74346;BME280;62776;50.518;6.732;2023-08-17T14:42:19;96736.25;;;26.27;100.00
74346;BME280;62776;50.518;6.732;2023-08-17T14:45:06;96730.91;;;26.78;100.00
74346;BME280;62776;50.518;6.732;2023-08-17T14:47:52;96731.84;;;27.49;100.00